createdAt,value
2022-10-02T00:00:14.550Z,14.06
2022-10-02T00:00:26.420Z,14.05
2022-10-02T00:00:39.875Z,14.09
2022-10-02T00:00:54.822Z,14.07
2022-10-02T00:01:17.110Z,14.05
2022-10-02T00:01:47.683Z,14.06
2022-10-02T00:02:24.340Z,13.99
2022-10-02T00:02:41.296Z,13.97
2022-10-02T00:03:16.307Z,13.96
2022-10-02T00:03:32.209Z,13.98
2022-10-02T00:03:45.726Z,13.99
2022-10-02T00:03:58.449Z,13.94
2022-10-02T00:04:15.902Z,13.99
2022-10-02T00:04:54.283Z,13.98
2022-10-02T00:05:32.706Z,14.02
2022-10-02T00:05:53.040Z,13.99
2022-10-02T00:06:22.419Z,14.00
2022-10-02T00:06:43.194Z,13.99
2022-10-02T00:07:00.201Z,14.05
2022-10-02T00:07:14.721Z,14.05
2022-10-02T00:07:36.241Z,14.03
2022-10-02T00:08:10.281Z,13.98
2022-10-02T00:08:31.958Z,14.05
2022-10-02T00:08:46.212Z,14.10
2022-10-02T00:09:03.449Z,14.12
2022-10-02T00:09:33.948Z,14.12
2022-10-02T00:09:56.508Z,14.07
2022-10-02T00:10:21.284Z,14.02
2022-10-02T00:10:37.386Z,13.97
2022-10-02T00:10:54.670Z,13.95
2022-10-02T00:11:16.357Z,13.97
2022-10-02T00:11:43.523Z,13.98
2022-10-02T00:11:58.842Z,14.01
2022-10-02T00:12:14.189Z,14.05
2022-10-02T00:12:29.540Z,14.02
2022-10-02T00:12:41.673Z,13.98
2022-10-02T00:12:58.597Z,13.95
2022-10-02T00:13:37.439Z,13.93
2022-10-02T00:13:54.169Z,13.97
2022-10-02T00:14:13.634Z,14.06
2022-10-02T00:14:31.311Z,14.07
2022-10-02T00:14:45.767Z,14.02
2022-10-02T00:15:14.735Z,14.09
2022-10-02T00:15:29.831Z,14.05
2022-10-02T00:15:42.507Z,14.08
2022-10-02T00:15:55.485Z,14.04
2022-10-02T00:16:16.987Z,14.08
2022-10-02T00:16:35.063Z,14.09
2022-10-02T00:16:51.501Z,14.05
2022-10-02T00:17:04.092Z,14.04
2022-10-02T00:17:24.013Z,14.12
2022-10-02T00:17:42.306Z,14.12
2022-10-02T00:17:59.878Z,14.14
2022-10-02T00:18:16.025Z,14.03
2022-10-02T00:18:34.647Z,14.05
2022-10-02T00:18:48.847Z,14.05
2022-10-02T00:19:01.103Z,13.98
2022-10-02T00:19:17.319Z,14.01
2022-10-02T00:19:29.266Z,14.05
2022-10-02T00:19:41.175Z,14.07
2022-10-02T00:19:55.553Z,14.10
2022-10-02T00:20:20.196Z,14.07
2022-10-02T00:20:46.216Z,14.07
2022-10-02T00:21:20.407Z,14.04
2022-10-02T00:21:43.855Z,14.11
2022-10-02T00:22:01.765Z,14.11
2022-10-02T00:22:24.696Z,14.15
2022-10-02T00:22:42.891Z,14.13
2022-10-02T00:23:06.837Z,14.12
2022-10-02T00:23:45.187Z,14.10
2022-10-02T00:24:00.517Z,14.13
2022-10-02T00:24:17.761Z,14.15
2022-10-02T00:24:47.619Z,14.17
2022-10-02T00:25:10.120Z,14.21
2022-10-02T00:25:27.731Z,14.18
2022-10-02T00:25:54.397Z,14.13
2022-10-02T00:26:18.832Z,14.17
2022-10-02T00:26:33.844Z,14.17
2022-10-02T00:26:57.938Z,14.16
2022-10-02T00:27:27.227Z,14.25
2022-10-02T00:27:41.814Z,14.21
2022-10-02T00:28:11.800Z,14.22
2022-10-02T00:28:29.105Z,14.20
2022-10-02T00:28:49.232Z,14.27
2022-10-02T00:29:27.891Z,14.31
2022-10-02T00:29:49.956Z,14.34
2022-10-02T00:30:03.786Z,14.26
2022-10-02T00:30:18.011Z,14.28
2022-10-02T00:30:38.490Z,14.22
2022-10-02T00:31:05.865Z,14.28
2022-10-02T00:31:33.429Z,14.32
2022-10-02T00:31:45.390Z,14.35
2022-10-02T00:32:11.533Z,14.22
2022-10-02T00:32:43.326Z,14.19
2022-10-02T00:33:32.444Z,14.18
2022-10-02T00:34:11.764Z,14.20
2022-10-02T00:34:54.079Z,14.22
2022-10-02T00:35:35.139Z,14.22
2022-10-02T00:35:52.798Z,14.16
2022-10-02T00:36:07.644Z,14.18
2022-10-02T00:36:52.843Z,14.13
2022-10-02T00:37:23.710Z,14.12
2022-10-02T00:38:04.601Z,14.10
2022-10-02T00:38:25.389Z,14.10
2022-10-02T00:38:45.707Z,14.11
2022-10-02T00:39:33.885Z,14.18
2022-10-02T00:40:02.245Z,14.09
2022-10-02T00:40:38.855Z,14.11
2022-10-02T00:41:44.248Z,14.13
2022-10-02T00:42:10.940Z,14.26
2022-10-02T00:42:37.593Z,14.22
2022-10-02T00:42:55.037Z,14.23
2022-10-02T00:43:18.687Z,14.22
2022-10-02T00:43:38.387Z,14.24
2022-10-02T00:43:50.317Z,14.19
2022-10-02T00:44:14.262Z,14.22
2022-10-02T00:44:47.667Z,14.14
2022-10-02T00:45:37.146Z,14.18
2022-10-02T00:45:49.029Z,14.17
2022-10-02T00:46:30.052Z,14.22
2022-10-02T00:46:48.811Z,14.18
2022-10-02T00:47:10.292Z,14.14
2022-10-02T00:47:40.655Z,14.12
2022-10-02T00:48:17.244Z,13.98
2022-10-02T00:48:40.251Z,14.04
2022-10-02T00:49:22.955Z,13.97
2022-10-02T00:49:56.984Z,14.04
2022-10-02T00:50:27.417Z,14.01
2022-10-02T00:51:25.265Z,13.99
2022-10-02T00:51:45.896Z,14.05
2022-10-02T00:52:05.562Z,14.07
2022-10-02T00:52:32.515Z,14.04
2022-10-02T00:53:13.409Z,13.99
2022-10-02T00:53:33.881Z,13.94
2022-10-02T00:54:24.117Z,13.95
2022-10-02T00:54:57.270Z,13.90
2022-10-02T00:55:27.168Z,13.87
2022-10-02T00:56:04.957Z,13.79
2022-10-02T00:56:31.031Z,13.79
2022-10-02T00:57:08.957Z,13.79
2022-10-02T00:57:30.851Z,13.78
2022-10-02T00:57:59.882Z,13.81
2022-10-02T00:58:40.547Z,13.83
2022-10-02T00:58:59.970Z,13.85
2022-10-02T00:59:34.527Z,13.81
2022-10-02T01:00:01.333Z,13.79
2022-10-02T01:00:18.491Z,13.79
2022-10-02T01:00:31.597Z,13.79
2022-10-02T01:00:55.704Z,13.82
2022-10-02T01:01:16.678Z,13.76
2022-10-02T01:01:53.571Z,13.82
2022-10-02T01:02:13.840Z,13.77
2022-10-02T01:02:31.756Z,13.79
2022-10-02T01:03:02.154Z,13.86
2022-10-02T01:03:41.022Z,13.85
2022-10-02T01:03:56.498Z,13.80
2022-10-02T01:04:15.503Z,13.78
2022-10-02T01:04:33.891Z,13.76
2022-10-02T01:04:47.988Z,13.85
2022-10-02T01:05:03.371Z,13.84
2022-10-02T01:05:16.075Z,13.85
2022-10-02T01:05:28.119Z,13.86
2022-10-02T01:05:40.197Z,13.86
2022-10-02T01:05:52.532Z,13.88
2022-10-02T01:06:05.100Z,13.87
2022-10-02T01:06:17.069Z,13.90
2022-10-02T01:06:29.186Z,13.93
2022-10-02T01:06:41.871Z,13.92
2022-10-02T01:06:54.703Z,13.88
2022-10-02T01:07:10.546Z,13.90
2022-10-02T01:07:22.482Z,13.93
2022-10-02T01:07:40.993Z,13.90
2022-10-02T01:07:54.667Z,13.94
2022-10-02T01:08:07.823Z,13.95
2022-10-02T01:08:19.864Z,13.97
2022-10-02T01:08:32.468Z,13.96
2022-10-02T01:08:44.383Z,13.98
2022-10-02T01:08:56.412Z,13.96
2022-10-02T01:09:08.362Z,13.96
2022-10-02T01:09:20.487Z,13.96
2022-10-02T01:09:33.111Z,13.96
2022-10-02T01:09:46.139Z,13.95
2022-10-02T01:09:58.388Z,13.94
2022-10-02T01:10:13.235Z,13.99
2022-10-02T01:10:26.128Z,13.97
2022-10-02T01:10:39.515Z,13.97
2022-10-02T01:10:51.716Z,13.99
2022-10-02T01:11:05.576Z,14.01
2022-10-02T01:11:17.918Z,14.01
2022-10-02T01:11:31.353Z,13.99
2022-10-02T01:11:44.906Z,13.97
2022-10-02T01:11:56.991Z,13.98
2022-10-02T01:12:09.380Z,14.01
2022-10-02T01:12:22.962Z,14.01
2022-10-02T01:12:35.088Z,14.02
2022-10-02T01:12:47.016Z,14.04
2022-10-02T01:12:59.188Z,14.04
2022-10-02T01:13:11.075Z,14.05
2022-10-02T01:13:23.200Z,14.09
2022-10-02T01:13:35.166Z,14.09
2022-10-02T01:13:47.839Z,14.12
2022-10-02T01:14:00.097Z,14.14
2022-10-02T01:14:12.476Z,14.11
2022-10-02T01:14:39.063Z,14.12
2022-10-02T01:14:50.934Z,14.14
2022-10-02T01:15:14.265Z,14.15
2022-10-02T01:15:37.380Z,14.19
2022-10-02T01:15:54.755Z,14.15
2022-10-02T01:16:11.708Z,14.10
2022-10-02T01:16:23.819Z,14.13
2022-10-02T01:16:36.125Z,14.11
2022-10-02T01:16:48.292Z,14.11
2022-10-02T01:17:01.053Z,14.12
2022-10-02T01:17:28.625Z,14.09
2022-10-02T01:17:41.797Z,14.11
2022-10-02T01:17:55.463Z,14.13
2022-10-02T01:18:07.574Z,14.12
2022-10-02T01:18:19.688Z,14.10
2022-10-02T01:18:31.869Z,14.08
2022-10-02T01:18:48.463Z,14.10
2022-10-02T01:19:00.448Z,14.14
2022-10-02T01:19:31.616Z,14.19
2022-10-02T01:19:43.497Z,14.17
2022-10-02T01:19:56.560Z,14.16
2022-10-02T01:20:19.190Z,14.11
2022-10-02T01:20:34.536Z,14.09
2022-10-02T01:20:54.413Z,14.10
2022-10-02T01:21:14.881Z,14.12
2022-10-02T01:21:36.825Z,14.09
2022-10-02T01:21:55.319Z,14.09
2022-10-02T01:22:19.048Z,14.08
2022-10-02T01:22:40.747Z,14.10
2022-10-02T01:22:58.964Z,14.09
2022-10-02T01:23:22.818Z,14.09
2022-10-02T01:23:55.742Z,14.13
2022-10-02T01:24:18.623Z,14.15
2022-10-02T01:24:36.814Z,14.10
2022-10-02T01:24:56.542Z,14.10
2022-10-02T01:25:08.879Z,14.14
2022-10-02T01:25:20.908Z,14.13
2022-10-02T01:25:33.092Z,14.17
2022-10-02T01:25:45.384Z,14.19
2022-10-02T01:25:58.758Z,14.15
2022-10-02T01:26:10.744Z,14.17
2022-10-02T01:26:22.780Z,14.18
2022-10-02T01:26:34.956Z,14.18
2022-10-02T01:26:47.223Z,14.17
2022-10-02T01:26:59.126Z,14.13
2022-10-02T01:27:11.003Z,14.12
2022-10-02T01:27:24.176Z,14.13
2022-10-02T01:27:39.366Z,14.14
2022-10-02T01:27:53.482Z,14.16
2022-10-02T01:28:05.981Z,14.18
2022-10-02T01:28:18.466Z,14.18
2022-10-02T01:28:30.849Z,14.21
2022-10-02T01:28:42.812Z,14.19
2022-10-02T01:28:54.938Z,14.23
2022-10-02T01:29:06.876Z,14.22
2022-10-02T01:29:18.815Z,14.23
2022-10-02T01:29:30.729Z,14.25
2022-10-02T01:29:45.796Z,14.24
2022-10-02T01:30:02.657Z,14.25
2022-10-02T01:30:17.923Z,14.25
2022-10-02T01:30:31.302Z,14.23
2022-10-02T01:30:47.610Z,14.20
2022-10-02T01:31:04.848Z,14.23
2022-10-02T01:31:17.232Z,14.19
2022-10-02T01:31:29.897Z,14.19
2022-10-02T01:31:42.932Z,14.21
2022-10-02T01:31:56.126Z,14.24
2022-10-02T01:32:08.350Z,14.23
2022-10-02T01:32:20.704Z,14.24
2022-10-02T01:32:35.150Z,14.23
2022-10-02T01:33:05.771Z,14.25
2022-10-02T01:33:18.375Z,14.26
2022-10-02T01:33:31.695Z,14.28
2022-10-02T01:33:45.216Z,14.27
2022-10-02T01:33:57.234Z,14.26
2022-10-02T01:34:10.033Z,14.30
2022-10-02T01:34:23.865Z,14.29
2022-10-02T01:34:37.052Z,14.31
2022-10-02T01:34:50.101Z,14.31
2022-10-02T01:35:03.047Z,14.32
2022-10-02T01:35:15.750Z,14.30
2022-10-02T01:35:33.690Z,14.32
2022-10-02T01:35:46.035Z,14.34
2022-10-02T01:35:58.288Z,14.32
2022-10-02T01:36:11.880Z,14.31
2022-10-02T01:36:23.844Z,14.31
2022-10-02T01:36:36.154Z,14.31
2022-10-02T01:36:48.486Z,14.32
2022-10-02T01:37:00.433Z,14.30
2022-10-02T01:37:12.899Z,14.33
2022-10-02T01:37:29.336Z,14.35
2022-10-02T01:37:44.098Z,14.38
2022-10-02T01:37:56.360Z,14.39
2022-10-02T01:38:14.479Z,14.39
2022-10-02T01:38:27.969Z,14.40
2022-10-02T01:38:41.733Z,14.36
2022-10-02T01:38:54.770Z,14.36
2022-10-02T01:39:06.974Z,14.39
2022-10-02T01:39:19.012Z,14.39
2022-10-02T01:39:30.987Z,14.42
2022-10-02T01:39:43.475Z,14.42
2022-10-02T01:39:59.827Z,14.44
2022-10-02T01:40:34.255Z,14.43
2022-10-02T01:40:46.133Z,14.43
2022-10-02T01:40:58.048Z,14.44
2022-10-02T01:41:11.409Z,14.38
2022-10-02T01:41:24.353Z,14.36
2022-10-02T01:41:42.923Z,14.38
2022-10-02T01:41:55.578Z,14.40
2022-10-02T01:42:07.508Z,14.40
2022-10-02T01:42:21.275Z,14.39
2022-10-02T01:42:34.069Z,14.39
2022-10-02T01:42:45.995Z,14.41
2022-10-02T01:43:05.383Z,14.38
2022-10-02T01:43:21.957Z,14.36
2022-10-02T01:43:47.166Z,14.39
2022-10-02T01:44:01.371Z,14.37
2022-10-02T01:44:15.672Z,14.40
2022-10-02T01:44:28.230Z,14.37
2022-10-02T01:44:40.421Z,14.36
2022-10-02T01:44:52.379Z,14.33
2022-10-02T01:45:07.134Z,14.35
2022-10-02T01:45:27.942Z,14.36
2022-10-02T01:46:16.855Z,14.34
2022-10-02T01:46:53.902Z,14.38
2022-10-02T01:47:12.635Z,14.42
2022-10-02T01:47:35.924Z,14.46
2022-10-02T01:48:13.758Z,14.53
2022-10-02T01:48:40.923Z,14.55
2022-10-02T01:49:11.421Z,14.58
2022-10-02T01:49:44.845Z,14.60
2022-10-02T01:50:27.685Z,14.61
2022-10-02T01:51:06.525Z,14.63
2022-10-02T01:51:39.063Z,14.67
2022-10-02T01:51:53.675Z,14.69
2022-10-02T01:52:27.139Z,14.68
2022-10-02T01:52:48.014Z,14.69
2022-10-02T01:53:10.694Z,14.70
2022-10-02T01:53:43.943Z,14.69
2022-10-02T01:54:07.957Z,14.72
2022-10-02T01:54:47.360Z,14.78
2022-10-02T01:55:22.073Z,14.85
2022-10-02T01:56:01.118Z,14.85
2022-10-02T01:56:37.421Z,14.83
2022-10-02T01:56:55.503Z,14.87
2022-10-02T01:57:34.612Z,14.89
2022-10-02T01:57:54.304Z,14.90
2022-10-02T01:58:17.122Z,14.89
2022-10-02T01:58:48.179Z,14.93
2022-10-02T01:59:05.149Z,14.88
2022-10-02T01:59:35.985Z,14.87
2022-10-02T01:59:57.294Z,14.89
2022-10-02T02:00:26.705Z,14.89
2022-10-02T02:00:51.782Z,14.90
2022-10-02T02:01:25.130Z,14.90
2022-10-02T02:01:52.536Z,14.93
2022-10-02T02:02:18.520Z,14.91
2022-10-02T02:02:58.848Z,14.95
2022-10-02T02:03:37.561Z,14.99
2022-10-02T02:03:55.463Z,15.01
2022-10-02T02:04:15.455Z,15.01
2022-10-02T02:04:37.765Z,15.01
2022-10-02T02:05:32.093Z,15.07
2022-10-02T02:05:50.201Z,15.10
2022-10-02T02:06:04.870Z,15.11
2022-10-02T02:06:16.694Z,15.14
2022-10-02T02:06:54.888Z,15.15
2022-10-02T02:07:18.687Z,15.16
2022-10-02T02:08:08.969Z,15.13
2022-10-02T02:08:30.633Z,15.16
2022-10-02T02:09:04.037Z,15.13
2022-10-02T02:09:19.612Z,15.09
2022-10-02T02:10:04.122Z,15.13
2022-10-02T02:10:31.197Z,15.18
2022-10-02T02:10:58.398Z,15.22
2022-10-02T02:11:14.338Z,15.27
2022-10-02T02:11:26.473Z,15.27
2022-10-02T02:11:47.020Z,15.22
2022-10-02T02:12:13.055Z,15.21
2022-10-02T02:12:30.925Z,15.15
2022-10-02T02:12:54.268Z,15.18
2022-10-02T02:13:44.749Z,15.12
2022-10-02T02:14:11.523Z,15.14
2022-10-02T02:14:33.209Z,15.15
2022-10-02T02:14:53.263Z,15.13
2022-10-02T02:15:13.217Z,15.14
2022-10-02T02:15:43.133Z,15.14
2022-10-02T02:16:09.091Z,15.17
2022-10-02T02:16:31.429Z,15.22
2022-10-02T02:16:46.156Z,15.22
2022-10-02T02:17:17.723Z,15.21
2022-10-02T02:17:50.725Z,15.14
2022-10-02T02:18:14.824Z,15.24
2022-10-02T02:18:33.836Z,15.21
2022-10-02T02:18:56.604Z,15.18
2022-10-02T02:19:17.205Z,15.20
2022-10-02T02:19:39.384Z,15.16
2022-10-02T02:20:20.692Z,15.18
2022-10-02T02:20:57.019Z,15.14
2022-10-02T02:21:14.782Z,15.08
2022-10-02T02:21:33.654Z,15.11
2022-10-02T02:21:58.713Z,15.08
2022-10-02T02:22:17.340Z,15.07
2022-10-02T02:22:36.401Z,15.10
2022-10-02T02:22:52.707Z,15.11
2022-10-02T02:23:10.689Z,15.15
2022-10-02T02:23:28.288Z,15.14
2022-10-02T02:23:42.127Z,15.17
2022-10-02T02:23:57.523Z,15.18
2022-10-02T02:24:42.236Z,15.18
2022-10-02T02:25:04.654Z,15.24
2022-10-02T02:25:25.222Z,15.17
2022-10-02T02:25:45.110Z,15.20
2022-10-02T02:26:02.768Z,15.24
2022-10-02T02:26:18.770Z,15.32
2022-10-02T02:26:33.007Z,15.25
2022-10-02T02:26:46.920Z,15.28
2022-10-02T02:27:02.592Z,15.31
2022-10-02T02:27:19.759Z,15.33
2022-10-02T02:27:38.665Z,15.28
2022-10-02T02:27:57.933Z,15.18
2022-10-02T02:28:13.282Z,15.11
2022-10-02T02:28:29.419Z,15.09
2022-10-02T02:28:47.413Z,15.01
2022-10-02T02:29:08.066Z,15.12
2022-10-02T02:29:23.654Z,15.14
2022-10-02T02:29:38.754Z,15.15
2022-10-02T02:29:57.193Z,15.17
2022-10-02T02:30:14.320Z,15.12
2022-10-02T02:30:29.199Z,15.13
2022-10-02T02:30:45.533Z,15.18
2022-10-02T02:30:58.989Z,15.14
2022-10-02T02:31:17.882Z,15.16
2022-10-02T02:31:35.297Z,15.17
2022-10-02T02:31:53.209Z,15.20
2022-10-02T02:32:09.728Z,15.22
2022-10-02T02:32:26.802Z,15.24
2022-10-02T02:32:49.075Z,15.23
2022-10-02T02:33:23.051Z,15.18
2022-10-02T02:33:41.762Z,15.16
2022-10-02T02:34:01.452Z,15.13
2022-10-02T02:34:19.210Z,15.22
2022-10-02T02:34:47.594Z,15.28
2022-10-02T02:35:07.704Z,15.21
2022-10-02T02:35:30.873Z,15.26
2022-10-02T02:35:47.262Z,15.31
2022-10-02T02:36:04.697Z,15.32
2022-10-02T02:36:22.088Z,15.26
2022-10-02T02:36:39.250Z,15.23
2022-10-02T02:36:57.276Z,15.22
2022-10-02T02:37:16.355Z,15.20
2022-10-02T02:37:32.596Z,15.08
2022-10-02T02:37:48.376Z,15.15
2022-10-02T02:38:06.124Z,15.11
2022-10-02T02:38:25.791Z,15.11
2022-10-02T02:38:42.548Z,15.04
2022-10-02T02:39:00.428Z,15.03
2022-10-02T02:39:19.012Z,15.07
2022-10-02T02:39:46.864Z,15.14
2022-10-02T02:40:29.793Z,15.08
2022-10-02T02:40:44.745Z,15.13
2022-10-02T02:41:03.124Z,15.17
2022-10-02T02:41:27.124Z,15.18
2022-10-02T02:41:51.719Z,15.13
2022-10-02T02:42:06.782Z,15.12
2022-10-02T02:42:26.314Z,15.12
2022-10-02T02:42:46.016Z,15.09
2022-10-02T02:43:06.843Z,15.10
2022-10-02T02:43:25.397Z,15.10
2022-10-02T02:43:49.584Z,15.08
2022-10-02T02:44:08.638Z,15.08
2022-10-02T02:44:32.557Z,15.08
2022-10-02T02:44:49.975Z,15.11
2022-10-02T02:45:18.463Z,15.01
2022-10-02T02:45:37.657Z,15.01
2022-10-02T02:45:58.719Z,14.99
2022-10-02T02:46:20.549Z,15.04
2022-10-02T02:47:03.676Z,15.09
2022-10-02T02:47:22.473Z,15.08
2022-10-02T02:47:40.195Z,15.08
2022-10-02T02:47:57.676Z,15.06
2022-10-02T02:48:18.786Z,15.08
2022-10-02T02:48:36.782Z,15.11
2022-10-02T02:48:56.012Z,15.12
2022-10-02T02:49:11.797Z,15.13
2022-10-02T02:49:26.465Z,15.18
2022-10-02T02:49:44.235Z,15.14
2022-10-02T02:50:01.985Z,15.14
2022-10-02T02:50:37.193Z,15.15
2022-10-02T02:50:54.575Z,15.13
2022-10-02T02:51:17.669Z,15.12
2022-10-02T02:51:41.364Z,15.14
2022-10-02T02:51:56.272Z,15.15
2022-10-02T02:52:14.387Z,15.16
2022-10-02T02:52:47.314Z,15.11
2022-10-02T02:53:05.793Z,15.17
2022-10-02T02:53:23.185Z,15.23
2022-10-02T02:53:42.028Z,15.21
2022-10-02T02:54:07.594Z,15.20
2022-10-02T02:54:28.865Z,15.20
2022-10-02T02:54:47.036Z,15.10
2022-10-02T02:55:07.867Z,15.12
2022-10-02T02:55:26.003Z,15.08
2022-10-02T02:55:53.938Z,15.11
2022-10-02T02:56:09.882Z,15.14
2022-10-02T02:56:22.119Z,15.06
2022-10-02T02:56:35.043Z,15.02
2022-10-02T02:56:49.964Z,15.06
2022-10-02T02:57:05.327Z,15.13
2022-10-02T02:57:22.959Z,15.15
2022-10-02T02:57:51.145Z,15.11
2022-10-02T02:58:17.509Z,15.17
2022-10-02T02:58:54.150Z,15.04
2022-10-02T02:59:11.648Z,15.09
2022-10-02T02:59:28.822Z,15.10
2022-10-02T02:59:44.388Z,15.20
2022-10-02T03:00:00.379Z,15.28
2022-10-02T03:00:15.675Z,15.33
2022-10-02T03:00:27.939Z,15.25
2022-10-02T03:00:40.299Z,15.21
2022-10-02T03:00:52.368Z,15.18
2022-10-02T03:01:04.533Z,15.21
2022-10-02T03:01:16.501Z,15.20
2022-10-02T03:01:28.594Z,15.18
2022-10-02T03:01:42.072Z,15.18
2022-10-02T03:01:54.759Z,15.12
2022-10-02T03:02:06.772Z,15.11
2022-10-02T03:02:18.780Z,14.99
2022-10-02T03:02:30.851Z,15.07
2022-10-02T03:02:43.009Z,15.06
2022-10-02T03:02:55.516Z,15.07
2022-10-02T03:03:07.532Z,15.10
2022-10-02T03:03:19.452Z,15.14
2022-10-02T03:03:31.549Z,15.12
2022-10-02T03:03:43.469Z,15.12
2022-10-02T03:03:55.366Z,15.11
2022-10-02T03:04:12.356Z,15.09
2022-10-02T03:04:24.475Z,15.04
2022-10-02T03:04:36.394Z,15.03
2022-10-02T03:04:48.257Z,15.11
2022-10-02T03:05:00.275Z,15.10
2022-10-02T03:05:18.053Z,15.14
2022-10-02T03:05:31.472Z,15.16
2022-10-02T03:05:54.320Z,15.20
2022-10-02T03:06:25.536Z,15.16
2022-10-02T03:06:52.328Z,15.14
2022-10-02T03:07:05.580Z,15.16
2022-10-02T03:07:18.095Z,15.23
2022-10-02T03:07:30.111Z,15.22
2022-10-02T03:07:50.786Z,15.18
2022-10-02T03:08:12.006Z,15.12
2022-10-02T03:08:29.807Z,15.15
2022-10-02T03:08:43.144Z,15.14
2022-10-02T03:08:55.193Z,15.18
2022-10-02T03:09:13.632Z,15.10
2022-10-02T03:09:28.844Z,15.14
2022-10-02T03:09:40.997Z,15.16
2022-10-02T03:10:16.890Z,15.17
2022-10-02T03:10:53.359Z,15.14
2022-10-02T03:11:26.662Z,15.11
2022-10-02T03:12:06.260Z,15.07
2022-10-02T03:12:35.783Z,15.10
2022-10-02T03:12:59.550Z,15.15
2022-10-02T03:13:18.293Z,15.14
2022-10-02T03:13:57.924Z,15.16
2022-10-02T03:14:21.835Z,15.12
2022-10-02T03:14:48.064Z,15.13
2022-10-02T03:15:15.619Z,15.20
2022-10-02T03:15:45.917Z,15.13
2022-10-02T03:16:31.464Z,15.20
2022-10-02T03:16:58.628Z,15.23
2022-10-02T03:17:33.890Z,15.22
2022-10-02T03:18:13.544Z,15.20
2022-10-02T03:18:42.227Z,15.17
2022-10-02T03:19:06.688Z,15.17
2022-10-02T03:19:44.408Z,15.27
2022-10-02T03:20:14.559Z,15.15
2022-10-02T03:20:26.394Z,15.19
2022-10-02T03:20:46.884Z,15.16
2022-10-02T03:21:20.439Z,15.18
2022-10-02T03:21:54.779Z,15.23
2022-10-02T03:22:29.181Z,15.25
2022-10-02T03:23:01.269Z,15.18
2022-10-02T03:23:38.041Z,15.15
2022-10-02T03:24:23.755Z,15.04
2022-10-02T03:24:47.676Z,15.16
2022-10-02T03:25:23.764Z,15.16
2022-10-02T03:25:59.267Z,15.15
2022-10-02T03:26:38.608Z,15.05
2022-10-02T03:27:00.374Z,15.08
2022-10-02T03:27:18.728Z,15.06
2022-10-02T03:27:47.450Z,15.10
2022-10-02T03:28:43.395Z,15.21
2022-10-02T03:28:59.237Z,15.27
2022-10-02T03:29:19.059Z,15.27
2022-10-02T03:29:51.554Z,15.16
2022-10-02T03:30:07.103Z,15.10
2022-10-02T03:30:21.279Z,15.16
2022-10-02T03:30:35.587Z,15.21
2022-10-02T03:30:49.213Z,15.17
2022-10-02T03:31:01.493Z,15.13
2022-10-02T03:31:15.627Z,15.15
2022-10-02T03:31:32.974Z,15.22
2022-10-02T03:31:46.068Z,15.24
2022-10-02T03:32:00.215Z,15.26
2022-10-02T03:32:15.314Z,15.26
2022-10-02T03:32:28.501Z,15.28
2022-10-02T03:32:43.598Z,15.16
2022-10-02T03:32:57.273Z,15.18
2022-10-02T03:33:12.919Z,15.13
2022-10-02T03:33:26.151Z,15.17
2022-10-02T03:33:39.644Z,15.18
2022-10-02T03:33:53.771Z,15.13
2022-10-02T03:34:06.036Z,15.13
2022-10-02T03:34:18.923Z,15.10
2022-10-02T03:34:33.818Z,15.12
2022-10-02T03:34:47.820Z,15.14
2022-10-02T03:35:01.885Z,15.17
2022-10-02T03:35:15.108Z,15.22
2022-10-02T03:35:28.832Z,15.25
2022-10-02T03:35:42.327Z,15.27
2022-10-02T03:35:55.221Z,15.31
2022-10-02T03:36:07.481Z,15.24
2022-10-02T03:36:21.036Z,15.24
2022-10-02T03:36:33.646Z,15.24
2022-10-02T03:36:47.429Z,15.28
2022-10-02T03:37:00.594Z,15.32
2022-10-02T03:37:12.651Z,15.27
2022-10-02T03:37:25.844Z,15.23
2022-10-02T03:37:44.339Z,15.26
2022-10-02T03:38:00.165Z,15.25
2022-10-02T03:38:14.267Z,15.24
2022-10-02T03:38:28.721Z,15.26
2022-10-02T03:38:42.324Z,15.25
2022-10-02T03:39:23.811Z,15.25
2022-10-02T03:39:32.543Z,15.28
2022-10-02T03:39:45.267Z,15.29
2022-10-02T03:40:05.349Z,15.29
2022-10-02T03:40:17.372Z,15.31
2022-10-02T03:40:29.584Z,15.31
2022-10-02T03:40:42.848Z,15.34
2022-10-02T03:40:58.064Z,15.39
2022-10-02T03:41:10.006Z,15.39
2022-10-02T03:41:21.865Z,15.40
2022-10-02T03:41:46.276Z,15.40
2022-10-02T03:41:58.599Z,15.41
2022-10-02T03:42:13.408Z,15.41
2022-10-02T03:42:31.013Z,15.41
2022-10-02T03:42:43.181Z,15.37
2022-10-02T03:42:58.274Z,15.37
2022-10-02T03:43:19.864Z,15.42
2022-10-02T03:43:31.818Z,15.41
2022-10-02T03:43:43.730Z,15.43
2022-10-02T03:43:55.832Z,15.44
2022-10-02T03:44:08.298Z,15.45
2022-10-02T03:44:20.268Z,15.41
2022-10-02T03:44:32.157Z,15.39
2022-10-02T03:44:44.134Z,15.45
2022-10-02T03:44:56.031Z,15.42
2022-10-02T03:45:09.238Z,15.36
2022-10-02T03:45:46.302Z,15.35
2022-10-02T03:46:05.344Z,15.30
2022-10-02T03:46:17.310Z,15.30
2022-10-02T03:46:29.340Z,15.33
2022-10-02T03:46:41.349Z,15.33
2022-10-02T03:47:05.650Z,15.36
2022-10-02T03:47:17.625Z,15.37
2022-10-02T03:47:30.124Z,15.36
2022-10-02T03:47:42.024Z,15.32
2022-10-02T03:47:54.038Z,15.35
2022-10-02T03:48:05.893Z,15.33
2022-10-02T03:48:18.071Z,15.28
2022-10-02T03:48:29.943Z,15.31
2022-10-02T03:48:41.832Z,15.31
2022-10-02T03:48:56.355Z,15.30
2022-10-02T03:49:08.228Z,15.34
2022-10-02T03:49:20.097Z,15.31
2022-10-02T03:49:32.171Z,15.32
2022-10-02T03:49:44.130Z,15.31
2022-10-02T03:49:56.044Z,15.23
2022-10-02T03:50:09.268Z,15.24
2022-10-02T03:50:21.684Z,15.31
2022-10-02T03:50:36.415Z,15.33
2022-10-02T03:50:50.706Z,15.35
2022-10-02T03:51:02.608Z,15.40
2022-10-02T03:51:14.462Z,15.36
2022-10-02T03:51:26.407Z,15.38
2022-10-02T03:51:38.374Z,15.32
2022-10-02T03:51:50.317Z,15.26
2022-10-02T03:52:02.212Z,15.20
2022-10-02T03:52:17.322Z,15.24
2022-10-02T03:52:31.475Z,15.24
2022-10-02T03:52:44.998Z,15.27
2022-10-02T03:52:56.975Z,15.19
2022-10-02T03:53:20.437Z,15.19
2022-10-02T03:53:36.560Z,15.17
2022-10-02T03:53:48.460Z,15.15
2022-10-02T03:54:00.392Z,15.18
2022-10-02T03:54:17.721Z,15.20
2022-10-02T03:54:35.855Z,15.18
2022-10-02T03:54:51.229Z,15.16
2022-10-02T03:55:20.643Z,15.18
2022-10-02T03:55:37.565Z,15.29
2022-10-02T03:56:17.574Z,15.34
2022-10-02T03:56:39.405Z,15.23
2022-10-02T03:57:03.293Z,15.23
2022-10-02T03:57:21.181Z,15.22
2022-10-02T03:57:33.988Z,15.25
2022-10-02T03:57:47.459Z,15.24
2022-10-02T03:58:03.737Z,15.24
2022-10-02T03:58:17.258Z,15.19
2022-10-02T03:58:29.476Z,15.12
2022-10-02T03:58:46.608Z,15.15
2022-10-02T03:59:02.552Z,15.07
2022-10-02T03:59:20.968Z,15.09
2022-10-02T03:59:32.802Z,15.05
2022-10-02T03:59:53.661Z,14.92
2022-10-02T04:00:26.836Z,15.06
2022-10-02T04:00:51.162Z,15.11
2022-10-02T04:01:32.494Z,15.11
2022-10-02T04:01:49.348Z,15.16
2022-10-02T04:02:06.649Z,15.18
2022-10-02T04:03:04.810Z,15.17
2022-10-02T04:03:59.213Z,15.16
2022-10-02T04:04:20.027Z,15.11
2022-10-02T04:04:45.371Z,15.10
2022-10-02T04:05:06.568Z,15.10
2022-10-02T04:05:40.284Z,15.01
2022-10-02T04:06:11.878Z,14.98
2022-10-02T04:06:34.806Z,14.86
2022-10-02T04:07:04.720Z,14.92
2022-10-02T04:07:22.945Z,14.91
2022-10-02T04:07:39.920Z,14.99
2022-10-02T04:08:09.340Z,15.01
2022-10-02T04:08:38.119Z,15.00
2022-10-02T04:09:25.770Z,15.09
2022-10-02T04:09:53.951Z,15.10
2022-10-02T04:10:19.104Z,15.03
2022-10-02T04:10:49.948Z,15.01
2022-10-02T04:11:05.152Z,14.97
2022-10-02T04:11:27.737Z,15.01
2022-10-02T04:12:15.112Z,14.90
2022-10-02T04:12:41.375Z,14.87
2022-10-02T04:12:59.751Z,14.71
2022-10-02T04:13:21.459Z,14.67
2022-10-02T04:13:51.232Z,14.66
2022-10-02T04:14:15.177Z,14.65
2022-10-02T04:14:44.200Z,14.69
2022-10-02T04:15:19.196Z,14.72
2022-10-02T04:15:42.349Z,14.72
2022-10-02T04:16:06.423Z,14.67
2022-10-02T04:16:40.602Z,14.61
2022-10-02T04:17:03.655Z,14.61
2022-10-02T04:17:34.161Z,14.62
2022-10-02T04:17:58.201Z,14.50
2022-10-02T04:18:22.132Z,14.47
2022-10-02T04:18:41.532Z,14.33
2022-10-02T04:18:56.213Z,14.39
2022-10-02T04:19:46.726Z,14.42
2022-10-02T04:20:14.163Z,14.36
2022-10-02T04:20:37.193Z,14.30
2022-10-02T04:21:12.913Z,14.30
2022-10-02T04:21:54.514Z,14.28
2022-10-02T04:22:20.769Z,14.21
2022-10-02T04:22:39.693Z,14.24
2022-10-02T04:23:20.179Z,14.17
2022-10-02T04:23:32.023Z,14.11
2022-10-02T04:23:52.857Z,14.08
2022-10-02T04:24:17.762Z,14.12
2022-10-02T04:24:54.423Z,14.05